sensor_id;sensor_type;location;lat;lon;timestamp;temperature;humidity
66670;DHT22;53568;52.164;4.472;2023-03-11T00:00:42;4.45;45.61
66670;DHT22;53568;52.164;4.472;2023-03-11T00:03:12;4.45;45.84
66670;DHT22;53568;52.164;4.472;2023-03-11T00:05:40;4.48;45.16
66670;DHT22;53568;52.164;4.472;2023-03-11T00:08:09;4.41;45.44
66670;DHT22;53568;52.164;4.472;2023-03-11T00:10:39;4.41;45.71
66670;DHT22;53568;52.164;4.472;2023-03-11T00:13:05;4.41;45.61
66670;DHT22;53568;52.164;4.472;2023-03-11T00:15:32;4.44;46.28
66670;DHT22;53568;52.164;4.472;2023-03-11T00:17:59;4.53;46.75
66670;DHT22;53568;52.164;4.472;2023-03-11T00:20:25;4.54;47.33
66670;DHT22;53568;52.164;4.472;2023-03-11T00:22:52;4.51;47.73
66670;DHT22;53568;52.164;4.472;2023-03-11T00:25:20;4.64;47.71
66670;DHT22;53568;52.164;4.472;2023-03-11T00:27:45;4.47;47.79
66670;DHT22;53568;52.164;4.472;2023-03-11T00:30:13;4.50;46.92
66670;DHT22;53568;52.164;4.472;2023-03-11T00:32:39;4.44;47.55
66670;DHT22;53568;52.164;4.472;2023-03-11T00:35:05;4.51;47.85
66670;DHT22;53568;52.164;4.472;2023-03-11T00:37:31;4.43;47.28
66670;DHT22;53568;52.164;4.472;2023-03-11T00:39:57;4.55;47.38
66670;DHT22;53568;52.164;4.472;2023-03-11T00:42:23;4.51;48.07
66670;DHT22;53568;52.164;4.472;2023-03-11T00:44:48;4.58;48.71
66670;DHT22;53568;52.164;4.472;2023-03-11T00:47:14;4.54;47.91
66670;DHT22;53568;52.164;4.472;2023-03-11T00:49:40;4.57;47.84
66670;DHT22;53568;52.164;4.472;2023-03-11T00:52:06;4.51;48.03
66670;DHT22;53568;52.164;4.472;2023-03-11T00:54:31;4.62;48.00
66670;DHT22;53568;52.164;4.472;2023-03-11T00:56:57;4.58;47.74
66670;DHT22;53568;52.164;4.472;2023-03-11T00:59:22;4.54;48.24
66670;DHT22;53568;52.164;4.472;2023-03-11T01:01:48;4.44;48.43
66670;DHT22;53568;52.164;4.472;2023-03-11T01:04:13;4.43;48.96
66670;DHT22;53568;52.164;4.472;2023-03-11T01:06:39;4.60;48.55
66670;DHT22;53568;52.164;4.472;2023-03-11T01:09:04;4.67;48.79
66670;DHT22;53568;52.164;4.472;2023-03-11T01:11:30;4.53;48.73
66670;DHT22;53568;52.164;4.472;2023-03-11T01:13:56;4.50;48.42
66670;DHT22;53568;52.164;4.472;2023-03-11T01:16:22;4.48;48.95
66670;DHT22;53568;52.164;4.472;2023-03-11T01:18:48;4.53;47.94
66670;DHT22;53568;52.164;4.472;2023-03-11T01:21:13;4.45;47.76
66670;DHT22;53568;52.164;4.472;2023-03-11T01:23:40;4.58;47.96
66670;DHT22;53568;52.164;4.472;2023-03-11T01:26:06;4.58;47.95
66670;DHT22;53568;52.164;4.472;2023-03-11T01:28:31;4.60;47.92
66670;DHT22;53568;52.164;4.472;2023-03-11T01:30:57;4.45;47.90
66670;DHT22;53568;52.164;4.472;2023-03-11T01:33:23;4.33;48.18
66670;DHT22;53568;52.164;4.472;2023-03-11T01:35:48;4.44;48.51
66670;DHT22;53568;52.164;4.472;2023-03-11T01:38:14;4.55;48.48
66670;DHT22;53568;52.164;4.472;2023-03-11T01:40:43;4.54;48.25
66670;DHT22;53568;52.164;4.472;2023-03-11T01:48:27;4.57;48.58
66670;DHT22;53568;52.164;4.472;2023-03-11T01:50:53;4.57;48.93
66670;DHT22;53568;52.164;4.472;2023-03-11T01:53:20;4.53;49.49
66670;DHT22;53568;52.164;4.472;2023-03-11T01:55:47;4.45;49.48
66670;DHT22;53568;52.164;4.472;2023-03-11T01:58:22;4.51;49.31
66670;DHT22;53568;52.164;4.472;2023-03-11T02:00:48;4.53;49.32
66670;DHT22;53568;52.164;4.472;2023-03-11T02:03:28;4.55;49.30
66670;DHT22;53568;52.164;4.472;2023-03-11T02:06:00;4.57;49.31
66670;DHT22;53568;52.164;4.472;2023-03-11T02:08:27;4.58;49.74
66670;DHT22;53568;52.164;4.472;2023-03-11T02:10:56;4.72;49.54
66670;DHT22;53568;52.164;4.472;2023-03-11T02:13:21;4.68;49.77
66670;DHT22;53568;52.164;4.472;2023-03-11T02:15:47;4.37;50.63
66670;DHT22;53568;52.164;4.472;2023-03-11T02:18:14;4.48;50.99
66670;DHT22;53568;52.164;4.472;2023-03-11T02:23:25;4.64;50.96
66670;DHT22;53568;52.164;4.472;2023-03-11T02:26:04;4.55;51.53
66670;DHT22;53568;52.164;4.472;2023-03-11T02:28:34;4.68;51.62
66670;DHT22;53568;52.164;4.472;2023-03-11T02:31:00;4.62;51.32
66670;DHT22;53568;52.164;4.472;2023-03-11T02:33:30;4.71;51.25
66670;DHT22;53568;52.164;4.472;2023-03-11T02:35:56;4.67;51.55
66670;DHT22;53568;52.164;4.472;2023-03-11T02:38:22;4.67;51.66
66670;DHT22;53568;52.164;4.472;2023-03-11T02:40:57;4.68;51.39
66670;DHT22;53568;52.164;4.472;2023-03-11T02:43:36;4.62;51.60
66670;DHT22;53568;52.164;4.472;2023-03-11T02:46:05;4.65;51.69
66670;DHT22;53568;52.164;4.472;2023-03-11T02:48:33;4.50;50.76
66670;DHT22;53568;52.164;4.472;2023-03-11T02:50:59;4.47;50.87
66670;DHT22;53568;52.164;4.472;2023-03-11T02:53:28;4.54;50.78
66670;DHT22;53568;52.164;4.472;2023-03-11T02:55:54;4.44;50.86
66670;DHT22;53568;52.164;4.472;2023-03-11T02:58:20;4.55;50.75
66670;DHT22;53568;52.164;4.472;2023-03-11T03:00:45;4.62;50.34
66670;DHT22;53568;52.164;4.472;2023-03-11T03:03:11;4.68;50.37
66670;DHT22;53568;52.164;4.472;2023-03-11T03:05:36;4.54;50.52
66670;DHT22;53568;52.164;4.472;2023-03-11T03:08:02;4.57;50.48
66670;DHT22;53568;52.164;4.472;2023-03-11T03:10:28;4.62;50.45
66670;DHT22;53568;52.164;4.472;2023-03-11T03:12:53;4.64;50.73
66670;DHT22;53568;52.164;4.472;2023-03-11T03:15:19;4.60;50.91
66670;DHT22;53568;52.164;4.472;2023-03-11T03:17:45;4.68;50.95
66670;DHT22;53568;52.164;4.472;2023-03-11T03:20:11;4.72;50.54
66670;DHT22;53568;52.164;4.472;2023-03-11T03:22:40;4.72;50.51
66670;DHT22;53568;52.164;4.472;2023-03-11T03:25:06;4.79;49.91
66670;DHT22;53568;52.164;4.472;2023-03-11T03:27:33;4.71;50.21
66670;DHT22;53568;52.164;4.472;2023-03-11T03:29:58;4.76;50.23
66670;DHT22;53568;52.164;4.472;2023-03-11T03:32:24;4.71;50.03
66670;DHT22;53568;52.164;4.472;2023-03-11T03:34:49;4.71;50.21
66670;DHT22;53568;52.164;4.472;2023-03-11T03:37:15;4.81;50.05
66670;DHT22;53568;52.164;4.472;2023-03-11T03:39:40;4.72;50.02
66670;DHT22;53568;52.164;4.472;2023-03-11T03:42:06;4.79;50.20
66670;DHT22;53568;52.164;4.472;2023-03-11T03:44:32;4.84;49.78
66670;DHT22;53568;52.164;4.472;2023-03-11T03:46:58;4.84;49.97
66670;DHT22;53568;52.164;4.472;2023-03-11T03:49:23;4.79;50.17
66670;DHT22;53568;52.164;4.472;2023-03-11T03:51:49;4.91;50.40
66670;DHT22;53568;52.164;4.472;2023-03-11T03:54:14;4.78;50.54
66670;DHT22;53568;52.164;4.472;2023-03-11T03:56:40;4.82;49.97
66670;DHT22;53568;52.164;4.472;2023-03-11T03:59:05;4.67;50.50
66670;DHT22;53568;52.164;4.472;2023-03-11T04:01:31;4.75;50.39
66670;DHT22;53568;52.164;4.472;2023-03-11T04:03:56;4.78;50.30
66670;DHT22;53568;52.164;4.472;2023-03-11T04:06:24;4.82;50.49
66670;DHT22;53568;52.164;4.472;2023-03-11T04:08:51;4.88;50.07
66670;DHT22;53568;52.164;4.472;2023-03-11T04:11:17;4.88;50.43
66670;DHT22;53568;52.164;4.472;2023-03-11T04:13:43;4.98;50.22
66670;DHT22;53568;52.164;4.472;2023-03-11T04:16:18;5.00;50.09
66670;DHT22;53568;52.164;4.472;2023-03-11T04:18:44;4.95;50.22
66670;DHT22;53568;52.164;4.472;2023-03-11T04:21:10;4.93;50.44
66670;DHT22;53568;52.164;4.472;2023-03-11T04:23:36;4.98;50.12
66670;DHT22;53568;52.164;4.472;2023-03-11T04:26:02;4.99;50.66
66670;DHT22;53568;52.164;4.472;2023-03-11T04:28:28;4.91;50.30
66670;DHT22;53568;52.164;4.472;2023-03-11T04:30:53;4.92;50.13
66670;DHT22;53568;52.164;4.472;2023-03-11T04:33:19;4.65;50.72
66670;DHT22;53568;52.164;4.472;2023-03-11T04:35:44;4.79;50.35
66670;DHT22;53568;52.164;4.472;2023-03-11T04:38:10;4.75;50.62
66670;DHT22;53568;52.164;4.472;2023-03-11T04:40:37;4.57;51.11
66670;DHT22;53568;52.164;4.472;2023-03-11T04:43:03;4.74;50.68
66670;DHT22;53568;52.164;4.472;2023-03-11T04:45:28;4.68;50.65
66670;DHT22;53568;52.164;4.472;2023-03-11T04:47:54;4.57;51.09
66670;DHT22;53568;52.164;4.472;2023-03-11T04:50:19;4.67;50.82
66670;DHT22;53568;52.164;4.472;2023-03-11T04:52:46;4.60;51.50
66670;DHT22;53568;52.164;4.472;2023-03-11T04:55:12;4.79;50.92
66670;DHT22;53568;52.164;4.472;2023-03-11T04:57:41;4.69;51.16
66670;DHT22;53568;52.164;4.472;2023-03-11T05:00:10;4.72;51.25
66670;DHT22;53568;52.164;4.472;2023-03-11T05:02:37;4.84;51.04
66670;DHT22;53568;52.164;4.472;2023-03-11T05:05:04;4.74;51.15
66670;DHT22;53568;52.164;4.472;2023-03-11T05:07:30;4.75;51.00
66670;DHT22;53568;52.164;4.472;2023-03-11T05:09:55;4.58;51.58
66670;DHT22;53568;52.164;4.472;2023-03-11T05:12:21;4.69;51.38
66670;DHT22;53568;52.164;4.472;2023-03-11T05:14:46;4.58;51.81
66670;DHT22;53568;52.164;4.472;2023-03-11T05:17:12;4.57;51.85
66670;DHT22;53568;52.164;4.472;2023-03-11T05:19:39;4.67;51.85
66670;DHT22;53568;52.164;4.472;2023-03-11T05:22:06;4.69;51.80
66670;DHT22;53568;52.164;4.472;2023-03-11T05:24:32;4.76;51.77
66670;DHT22;53568;52.164;4.472;2023-03-11T05:26:58;4.89;51.31
66670;DHT22;53568;52.164;4.472;2023-03-11T05:29:24;4.88;51.56
66670;DHT22;53568;52.164;4.472;2023-03-11T05:31:49;4.89;51.62
66670;DHT22;53568;52.164;4.472;2023-03-11T05:34:15;4.79;51.83
66670;DHT22;53568;52.164;4.472;2023-03-11T05:36:41;4.89;51.76
66670;DHT22;53568;52.164;4.472;2023-03-11T05:39:07;4.96;51.46
66670;DHT22;53568;52.164;4.472;2023-03-11T05:41:33;4.92;51.61
66670;DHT22;53568;52.164;4.472;2023-03-11T05:43:59;4.86;51.70
66670;DHT22;53568;52.164;4.472;2023-03-11T05:46:24;4.76;52.04
66670;DHT22;53568;52.164;4.472;2023-03-11T05:48:50;4.79;51.96
66670;DHT22;53568;52.164;4.472;2023-03-11T05:51:15;4.79;52.13
66670;DHT22;53568;52.164;4.472;2023-03-11T05:53:43;4.85;51.96
66670;DHT22;53568;52.164;4.472;2023-03-11T05:56:17;4.82;52.22
66670;DHT22;53568;52.164;4.472;2023-03-11T05:58:43;4.81;52.24
66670;DHT22;53568;52.164;4.472;2023-03-11T06:01:11;4.84;52.18
66670;DHT22;53568;52.164;4.472;2023-03-11T06:03:38;4.89;52.26
66670;DHT22;53568;52.164;4.472;2023-03-11T06:06:05;4.96;52.30
66670;DHT22;53568;52.164;4.472;2023-03-11T06:08:32;4.96;52.40
66670;DHT22;53568;52.164;4.472;2023-03-11T06:11:06;4.98;52.49
66670;DHT22;53568;52.164;4.472;2023-03-11T06:13:32;4.99;52.43
66670;DHT22;53568;52.164;4.472;2023-03-11T06:15:58;5.05;52.31
66670;DHT22;53568;52.164;4.472;2023-03-11T06:18:23;5.09;52.11
66670;DHT22;53568;52.164;4.472;2023-03-11T06:20:51;5.12;51.89
66670;DHT22;53568;52.164;4.472;2023-03-11T06:23:17;5.11;52.20
66670;DHT22;53568;52.164;4.472;2023-03-11T06:25:43;5.12;52.24
66670;DHT22;53568;52.164;4.472;2023-03-11T06:28:08;5.13;52.20
66670;DHT22;53568;52.164;4.472;2023-03-11T06:30:34;5.16;52.20
66670;DHT22;53568;52.164;4.472;2023-03-11T06:33:00;5.16;52.43
66670;DHT22;53568;52.164;4.472;2023-03-11T06:35:25;5.16;52.61
66670;DHT22;53568;52.164;4.472;2023-03-11T06:37:51;5.09;52.84
66670;DHT22;53568;52.164;4.472;2023-03-11T06:40:16;4.99;53.14
66670;DHT22;53568;52.164;4.472;2023-03-11T06:42:45;4.96;53.41
66670;DHT22;53568;52.164;4.472;2023-03-11T06:45:11;4.95;53.68
66670;DHT22;53568;52.164;4.472;2023-03-11T06:47:37;4.92;53.98
66670;DHT22;53568;52.164;4.472;2023-03-11T06:50:03;4.95;54.28
66670;DHT22;53568;52.164;4.472;2023-03-11T06:52:31;4.93;54.32
66670;DHT22;53568;52.164;4.472;2023-03-11T06:54:57;4.96;54.54
66670;DHT22;53568;52.164;4.472;2023-03-11T06:57:22;4.96;54.87
66670;DHT22;53568;52.164;4.472;2023-03-11T06:59:48;4.93;55.30
66670;DHT22;53568;52.164;4.472;2023-03-11T07:02:13;4.89;55.72
66670;DHT22;53568;52.164;4.472;2023-03-11T07:04:39;4.89;55.81
66670;DHT22;53568;52.164;4.472;2023-03-11T07:07:05;4.88;55.80
66670;DHT22;53568;52.164;4.472;2023-03-11T07:09:30;4.85;55.98
66670;DHT22;53568;52.164;4.472;2023-03-11T07:11:55;4.88;56.22
66670;DHT22;53568;52.164;4.472;2023-03-11T07:14:21;4.92;56.49
66670;DHT22;53568;52.164;4.472;2023-03-11T07:16:47;4.95;56.62
66670;DHT22;53568;52.164;4.472;2023-03-11T07:19:12;5.05;56.65
66670;DHT22;53568;52.164;4.472;2023-03-11T07:21:39;5.11;56.61
66670;DHT22;53568;52.164;4.472;2023-03-11T07:24:05;5.18;56.62
66670;DHT22;53568;52.164;4.472;2023-03-11T07:26:32;5.18;56.63
66670;DHT22;53568;52.164;4.472;2023-03-11T07:28:59;5.22;56.70
66670;DHT22;53568;52.164;4.472;2023-03-11T07:31:32;5.26;56.79
66670;DHT22;53568;52.164;4.472;2023-03-11T07:34:00;5.36;56.89
66670;DHT22;53568;52.164;4.472;2023-03-11T07:36:27;5.44;56.21
66670;DHT22;53568;52.164;4.472;2023-03-11T07:38:59;5.59;55.99
66670;DHT22;53568;52.164;4.472;2023-03-11T07:41:28;5.63;56.28
66670;DHT22;53568;52.164;4.472;2023-03-11T07:43:56;5.70;56.39
66670;DHT22;53568;52.164;4.472;2023-03-11T07:46:23;5.74;56.37
66670;DHT22;53568;52.164;4.472;2023-03-11T07:48:50;5.78;56.24
66670;DHT22;53568;52.164;4.472;2023-03-11T07:51:17;5.77;56.06
66670;DHT22;53568;52.164;4.472;2023-03-11T07:53:43;5.83;55.97
66670;DHT22;53568;52.164;4.472;2023-03-11T07:56:11;5.94;55.16
66670;DHT22;53568;52.164;4.472;2023-03-11T07:58:37;6.03;54.95
66670;DHT22;53568;52.164;4.472;2023-03-11T08:01:09;6.11;54.48
66670;DHT22;53568;52.164;4.472;2023-03-11T08:03:35;6.24;54.04
66670;DHT22;53568;52.164;4.472;2023-03-11T08:06:01;6.31;53.99
66670;DHT22;53568;52.164;4.472;2023-03-11T08:08:27;6.34;53.83
66670;DHT22;53568;52.164;4.472;2023-03-11T08:10:53;6.41;53.68
66670;DHT22;53568;52.164;4.472;2023-03-11T08:13:19;6.42;53.31
66670;DHT22;53568;52.164;4.472;2023-03-11T08:15:44;6.45;52.97
66670;DHT22;53568;52.164;4.472;2023-03-11T08:18:10;6.55;53.23
66670;DHT22;53568;52.164;4.472;2023-03-11T08:20:38;6.58;52.65
66670;DHT22;53568;52.164;4.472;2023-03-11T08:23:04;6.62;52.59
66670;DHT22;53568;52.164;4.472;2023-03-11T08:25:30;6.71;52.36
66670;DHT22;53568;52.164;4.472;2023-03-11T08:27:55;6.76;51.71
66670;DHT22;53568;52.164;4.472;2023-03-11T08:30:21;6.91;50.74
66670;DHT22;53568;52.164;4.472;2023-03-11T08:32:47;6.89;50.77
66670;DHT22;53568;52.164;4.472;2023-03-11T08:35:14;6.93;50.77
66670;DHT22;53568;52.164;4.472;2023-03-11T08:37:39;6.97;50.03
66670;DHT22;53568;52.164;4.472;2023-03-11T08:40:05;6.92;50.04
66670;DHT22;53568;52.164;4.472;2023-03-11T08:42:32;6.84;49.54
66670;DHT22;53568;52.164;4.472;2023-03-11T08:44:57;6.86;49.35
66670;DHT22;53568;52.164;4.472;2023-03-11T08:47:23;6.89;48.76
66670;DHT22;53568;52.164;4.472;2023-03-11T08:49:48;6.92;49.00
66670;DHT22;53568;52.164;4.472;2023-03-11T08:52:14;6.91;49.13
66670;DHT22;53568;52.164;4.472;2023-03-11T08:54:39;6.97;49.39
66670;DHT22;53568;52.164;4.472;2023-03-11T08:57:05;7.03;49.06
66670;DHT22;53568;52.164;4.472;2023-03-11T08:59:31;7.06;49.08
66670;DHT22;53568;52.164;4.472;2023-03-11T09:01:56;7.17;49.27
66670;DHT22;53568;52.164;4.472;2023-03-11T09:04:22;7.07;49.64
66670;DHT22;53568;52.164;4.472;2023-03-11T09:06:47;6.99;49.09
66670;DHT22;53568;52.164;4.472;2023-03-11T09:09:16;7.06;48.88
66670;DHT22;53568;52.164;4.472;2023-03-11T09:11:45;7.17;48.37
66670;DHT22;53568;52.164;4.472;2023-03-11T09:14:11;7.23;48.30
66670;DHT22;53568;52.164;4.472;2023-03-11T09:16:37;7.20;48.44
66670;DHT22;53568;52.164;4.472;2023-03-11T09:19:03;7.24;48.06
66670;DHT22;53568;52.164;4.472;2023-03-11T09:21:32;7.36;48.11
66670;DHT22;53568;52.164;4.472;2023-03-11T09:23:58;7.43;47.82
66670;DHT22;53568;52.164;4.472;2023-03-11T09:26:24;7.53;47.60
66670;DHT22;53568;52.164;4.472;2023-03-11T09:28:50;7.64;47.71
66670;DHT22;53568;52.164;4.472;2023-03-11T09:31:17;7.50;47.80
66670;DHT22;53568;52.164;4.472;2023-03-11T09:33:44;7.49;47.15
66670;DHT22;53568;52.164;4.472;2023-03-11T09:36:15;7.49;47.09
66670;DHT22;53568;52.164;4.472;2023-03-11T09:38:42;7.59;47.38
66670;DHT22;53568;52.164;4.472;2023-03-11T09:43:57;7.57;47.30
66670;DHT22;53568;52.164;4.472;2023-03-11T09:49:40;7.56;47.17
66670;DHT22;53568;52.164;4.472;2023-03-11T09:52:14;7.71;47.14
66670;DHT22;53568;52.164;4.472;2023-03-11T09:54:47;7.84;46.35
66670;DHT22;53568;52.164;4.472;2023-03-11T09:57:21;7.91;46.36
66670;DHT22;53568;52.164;4.472;2023-03-11T09:59:49;7.93;45.17
66670;DHT22;53568;52.164;4.472;2023-03-11T10:02:18;7.74;46.09
66670;DHT22;53568;52.164;4.472;2023-03-11T10:05:02;7.81;45.49
66670;DHT22;53568;52.164;4.472;2023-03-11T10:07:39;7.59;45.46
66670;DHT22;53568;52.164;4.472;2023-03-11T10:10:08;7.60;45.19
66670;DHT22;53568;52.164;4.472;2023-03-11T10:12:57;7.64;45.11
66670;DHT22;53568;52.164;4.472;2023-03-11T10:18:18;7.64;43.84
66670;DHT22;53568;52.164;4.472;2023-03-11T10:23:21;7.40;46.17
66670;DHT22;53568;52.164;4.472;2023-03-11T10:25:57;7.43;45.72
66670;DHT22;53568;52.164;4.472;2023-03-11T10:31:19;7.80;45.26
66670;DHT22;53568;52.164;4.472;2023-03-11T10:34:05;7.63;44.52
66670;DHT22;53568;52.164;4.472;2023-03-11T10:39:22;7.94;44.43
66670;DHT22;53568;52.164;4.472;2023-03-11T10:42:02;7.91;45.00
66670;DHT22;53568;52.164;4.472;2023-03-11T10:46:57;7.78;44.38
66670;DHT22;53568;52.164;4.472;2023-03-11T10:49:23;7.69;45.40
66670;DHT22;53568;52.164;4.472;2023-03-11T10:51:51;7.80;44.93
66670;DHT22;53568;52.164;4.472;2023-03-11T10:56:59;8.04;44.60
66670;DHT22;53568;52.164;4.472;2023-03-11T10:59:54;8.18;43.16
66670;DHT22;53568;52.164;4.472;2023-03-11T11:02:25;8.08;43.20
66670;DHT22;53568;52.164;4.472;2023-03-11T11:05:19;8.08;43.89
66670;DHT22;53568;52.164;4.472;2023-03-11T11:07:49;7.90;43.25
66670;DHT22;53568;52.164;4.472;2023-03-11T11:10:22;8.01;43.20
66670;DHT22;53568;52.164;4.472;2023-03-11T11:12:57;8.01;40.59
66670;DHT22;53568;52.164;4.472;2023-03-11T11:17:59;8.25;39.85
66670;DHT22;53568;52.164;4.472;2023-03-11T11:20:28;8.21;38.44
66670;DHT22;53568;52.164;4.472;2023-03-11T11:22:57;8.34;38.69
66670;DHT22;53568;52.164;4.472;2023-03-11T11:25:29;8.35;38.91
66670;DHT22;53568;52.164;4.472;2023-03-11T11:27:59;8.51;39.44
66670;DHT22;53568;52.164;4.472;2023-03-11T11:30:26;8.71;41.00
66670;DHT22;53568;52.164;4.472;2023-03-11T11:32:52;8.73;41.10
66670;DHT22;53568;52.164;4.472;2023-03-11T11:35:22;8.76;40.51
66670;DHT22;53568;52.164;4.472;2023-03-11T11:37:51;8.69;40.64
66670;DHT22;53568;52.164;4.472;2023-03-11T11:40:25;8.59;40.01
66670;DHT22;53568;52.164;4.472;2023-03-11T11:43:04;8.69;40.02
66670;DHT22;53568;52.164;4.472;2023-03-11T11:45:41;8.75;39.46
66670;DHT22;53568;52.164;4.472;2023-03-11T11:48:38;8.61;40.57
66670;DHT22;53568;52.164;4.472;2023-03-11T11:51:32;8.55;41.89
66670;DHT22;53568;52.164;4.472;2023-03-11T11:54:15;8.61;41.96
66670;DHT22;53568;52.164;4.472;2023-03-11T11:56:44;8.48;43.99
66670;DHT22;53568;52.164;4.472;2023-03-11T11:59:20;8.35;42.63
66670;DHT22;53568;52.164;4.472;2023-03-11T12:04:49;8.12;45.69
66670;DHT22;53568;52.164;4.472;2023-03-11T12:12:47;7.90;47.29
66670;DHT22;53568;52.164;4.472;2023-03-11T12:15:20;7.63;47.17
66670;DHT22;53568;52.164;4.472;2023-03-11T12:17:51;7.67;47.97
66670;DHT22;53568;52.164;4.472;2023-03-11T12:20:37;7.87;47.89
66670;DHT22;53568;52.164;4.472;2023-03-11T12:26:21;8.18;47.59
66670;DHT22;53568;52.164;4.472;2023-03-11T12:28:59;8.37;46.23
66670;DHT22;53568;52.164;4.472;2023-03-11T12:31:29;8.37;44.71
66670;DHT22;53568;52.164;4.472;2023-03-11T12:34:03;8.20;46.23
66670;DHT22;53568;52.164;4.472;2023-03-11T12:36:32;8.11;46.94
66670;DHT22;53568;52.164;4.472;2023-03-11T12:39:02;8.08;47.73
66670;DHT22;53568;52.164;4.472;2023-03-11T12:41:38;8.14;46.68
66670;DHT22;53568;52.164;4.472;2023-03-11T12:44:24;8.20;46.71
66670;DHT22;53568;52.164;4.472;2023-03-11T12:49:23;8.24;48.20
66670;DHT22;53568;52.164;4.472;2023-03-11T13:03:14;8.12;49.08
66670;DHT22;53568;52.164;4.472;2023-03-11T13:08:34;8.04;49.47
66670;DHT22;53568;52.164;4.472;2023-03-11T13:11:25;8.18;48.97
66670;DHT22;53568;52.164;4.472;2023-03-11T13:13:51;8.24;49.04
66670;DHT22;53568;52.164;4.472;2023-03-11T13:18:44;8.17;48.87
66670;DHT22;53568;52.164;4.472;2023-03-11T13:24:03;8.32;48.19
66670;DHT22;53568;52.164;4.472;2023-03-11T13:26:50;8.39;46.66
66670;DHT22;53568;52.164;4.472;2023-03-11T13:35:15;8.31;47.18
66670;DHT22;53568;52.164;4.472;2023-03-11T13:40:42;8.32;48.64
66670;DHT22;53568;52.164;4.472;2023-03-11T13:43:17;8.31;48.17
66670;DHT22;53568;52.164;4.472;2023-03-11T13:46:02;8.25;46.80
66670;DHT22;53568;52.164;4.472;2023-03-11T13:48:35;8.44;47.97
66670;DHT22;53568;52.164;4.472;2023-03-11T13:51:16;8.18;49.56
66670;DHT22;53568;52.164;4.472;2023-03-11T13:53:56;8.04;50.40
66670;DHT22;53568;52.164;4.472;2023-03-11T13:56:42;8.11;49.19
66670;DHT22;53568;52.164;4.472;2023-03-11T14:01:50;8.01;49.89
66670;DHT22;53568;52.164;4.472;2023-03-11T14:04:24;8.21;47.41
66670;DHT22;53568;52.164;4.472;2023-03-11T14:06:51;8.22;48.24
66670;DHT22;53568;52.164;4.472;2023-03-11T14:09:19;8.14;48.81
66670;DHT22;53568;52.164;4.472;2023-03-11T14:11:46;7.99;48.77
66670;DHT22;53568;52.164;4.472;2023-03-11T14:14:42;8.20;49.19
66670;DHT22;53568;52.164;4.472;2023-03-11T14:17:15;8.09;49.60
66670;DHT22;53568;52.164;4.472;2023-03-11T14:19:41;8.22;48.58
66670;DHT22;53568;52.164;4.472;2023-03-11T14:22:08;8.14;49.29
66670;DHT22;53568;52.164;4.472;2023-03-11T14:24:35;8.14;49.10
66670;DHT22;53568;52.164;4.472;2023-03-11T14:27:07;8.02;48.55
66670;DHT22;53568;52.164;4.472;2023-03-11T14:29:38;8.01;49.08
66670;DHT22;53568;52.164;4.472;2023-03-11T14:32:34;8.11;49.52
66670;DHT22;53568;52.164;4.472;2023-03-11T14:35:00;8.24;49.96
66670;DHT22;53568;52.164;4.472;2023-03-11T14:37:34;8.15;48.35
66670;DHT22;53568;52.164;4.472;2023-03-11T14:40:01;7.90;50.97
66670;DHT22;53568;52.164;4.472;2023-03-11T14:42:37;7.94;50.07
66670;DHT22;53568;52.164;4.472;2023-03-11T14:45:36;8.02;48.83
66670;DHT22;53568;52.164;4.472;2023-03-11T14:48:25;8.05;50.04
66670;DHT22;53568;52.164;4.472;2023-03-11T14:50:52;8.07;49.23
66670;DHT22;53568;52.164;4.472;2023-03-11T14:53:36;8.17;49.42
66670;DHT22;53568;52.164;4.472;2023-03-11T14:56:12;8.24;50.21
66670;DHT22;53568;52.164;4.472;2023-03-11T14:58:42;8.18;49.91
66670;DHT22;53568;52.164;4.472;2023-03-11T15:01:18;8.12;49.74
66670;DHT22;53568;52.164;4.472;2023-03-11T15:04:03;8.15;49.20
66670;DHT22;53568;52.164;4.472;2023-03-11T15:06:33;8.37;48.97
66670;DHT22;53568;52.164;4.472;2023-03-11T15:09:18;8.52;48.99
66670;DHT22;53568;52.164;4.472;2023-03-11T15:14:23;8.55;47.70
66670;DHT22;53568;52.164;4.472;2023-03-11T15:16:51;8.37;47.14
66670;DHT22;53568;52.164;4.472;2023-03-11T15:19:31;8.28;48.97
66670;DHT22;53568;52.164;4.472;2023-03-11T15:22:52;8.38;48.34
66670;DHT22;53568;52.164;4.472;2023-03-11T15:24:54;8.46;47.17
66670;DHT22;53568;52.164;4.472;2023-03-11T15:29:56;8.24;47.84
66670;DHT22;53568;52.164;4.472;2023-03-11T15:35:00;8.42;49.91
66670;DHT22;53568;52.164;4.472;2023-03-11T15:37:27;8.37;49.69
66670;DHT22;53568;52.164;4.472;2023-03-11T15:39:57;8.25;49.20
66670;DHT22;53568;52.164;4.472;2023-03-11T15:42:35;8.17;50.19
66670;DHT22;53568;52.164;4.472;2023-03-11T15:45:10;8.24;49.87
66670;DHT22;53568;52.164;4.472;2023-03-11T15:47:38;8.28;48.69
66670;DHT22;53568;52.164;4.472;2023-03-11T15:50:18;8.29;50.66
66670;DHT22;53568;52.164;4.472;2023-03-11T15:52:45;8.04;49.59
66670;DHT22;53568;52.164;4.472;2023-03-11T15:55:13;8.01;49.99
66670;DHT22;53568;52.164;4.472;2023-03-11T15:57:39;8.05;50.72
66670;DHT22;53568;52.164;4.472;2023-03-11T16:00:14;7.95;50.73
66670;DHT22;53568;52.164;4.472;2023-03-11T16:02:40;8.05;50.60
66670;DHT22;53568;52.164;4.472;2023-03-11T16:05:18;8.04;49.73
66670;DHT22;53568;52.164;4.472;2023-03-11T16:07:44;7.88;49.64
66670;DHT22;53568;52.164;4.472;2023-03-11T16:10:13;7.85;50.29
66670;DHT22;53568;52.164;4.472;2023-03-11T16:12:39;7.87;50.77
66670;DHT22;53568;52.164;4.472;2023-03-11T16:15:19;7.84;51.39
66670;DHT22;53568;52.164;4.472;2023-03-11T16:17:46;7.90;51.71
66670;DHT22;53568;52.164;4.472;2023-03-11T16:20:13;7.80;51.93
66670;DHT22;53568;52.164;4.472;2023-03-11T16:22:38;7.84;52.42
66670;DHT22;53568;52.164;4.472;2023-03-11T16:25:04;7.84;52.25
66670;DHT22;53568;52.164;4.472;2023-03-11T16:27:33;7.90;52.21
66670;DHT22;53568;52.164;4.472;2023-03-11T16:29:59;7.97;52.63
66670;DHT22;53568;52.164;4.472;2023-03-11T16:32:24;8.07;52.37
66670;DHT22;53568;52.164;4.472;2023-03-11T16:34:50;8.15;52.35
66670;DHT22;53568;52.164;4.472;2023-03-11T16:37:17;8.09;52.42
66670;DHT22;53568;52.164;4.472;2023-03-11T16:39:46;7.97;53.17
66670;DHT22;53568;52.164;4.472;2023-03-11T16:42:13;7.97;53.41
66670;DHT22;53568;52.164;4.472;2023-03-11T16:44:38;7.95;53.60
66670;DHT22;53568;52.164;4.472;2023-03-11T16:47:04;7.95;53.42
66670;DHT22;53568;52.164;4.472;2023-03-11T16:49:29;7.98;53.56
66670;DHT22;53568;52.164;4.472;2023-03-11T16:51:55;7.94;53.51
66670;DHT22;53568;52.164;4.472;2023-03-11T16:54:20;7.94;53.79
66670;DHT22;53568;52.164;4.472;2023-03-11T16:56:46;7.83;53.96
66670;DHT22;53568;52.164;4.472;2023-03-11T16:59:11;7.84;53.90
66670;DHT22;53568;52.164;4.472;2023-03-11T17:01:37;7.78;54.10
66670;DHT22;53568;52.164;4.472;2023-03-11T17:04:05;7.78;54.06
66670;DHT22;53568;52.164;4.472;2023-03-11T17:06:30;7.81;54.05
66670;DHT22;53568;52.164;4.472;2023-03-11T17:08:55;7.85;54.16
66670;DHT22;53568;52.164;4.472;2023-03-11T17:11:22;7.87;53.86
66670;DHT22;53568;52.164;4.472;2023-03-11T17:13:53;7.90;53.81
66670;DHT22;53568;52.164;4.472;2023-03-11T17:16:20;7.88;53.90
66670;DHT22;53568;52.164;4.472;2023-03-11T17:18:45;7.90;54.03
66670;DHT22;53568;52.164;4.472;2023-03-11T17:21:14;7.84;54.28